createdAt,value
2018-03-30T00:00:38.198Z,6.30
2018-03-30T00:03:05.120Z,6.50
2018-03-30T00:05:31.961Z,6.40
2018-03-30T00:07:58.921Z,6.40
2018-03-30T00:10:26.033Z,6.40
2018-03-30T00:12:52.958Z,6.30
2018-03-30T00:15:19.805Z,6.30
2018-03-30T00:17:46.674Z,6.30
2018-03-30T00:20:13.521Z,6.40
2018-03-30T00:22:40.400Z,6.30
2018-03-30T00:25:07.255Z,6.20
2018-03-30T00:27:34.166Z,6.20
2018-03-30T00:30:01.528Z,6.30
2018-03-30T00:32:28.773Z,6.30
2018-03-30T00:34:55.650Z,6.30
2018-03-30T00:37:22.968Z,6.10
2018-03-30T00:39:49.914Z,6.10
2018-03-30T00:42:16.866Z,6.10
2018-03-30T00:44:43.827Z,6.10
2018-03-30T00:47:10.681Z,6.10
2018-03-30T00:49:37.544Z,6.10
2018-03-30T00:52:04.504Z,6.10
2018-03-30T00:54:31.397Z,6.10
2018-03-30T00:56:58.317Z,6.20
2018-03-30T00:59:25.193Z,6.10
2018-03-30T01:01:52.129Z,6.20
2018-03-30T01:04:18.975Z,6.10
2018-03-30T01:06:45.941Z,6.10
2018-03-30T01:09:12.785Z,6.10
2018-03-30T01:11:39.780Z,6.20
2018-03-30T01:14:06.612Z,6.20
2018-03-30T01:16:33.517Z,6.30
2018-03-30T01:19:00.363Z,6.30
2018-03-30T01:21:27.237Z,6.30
2018-03-30T01:23:54.144Z,6.30
2018-03-30T01:26:21.029Z,6.40
2018-03-30T01:28:47.969Z,6.40
2018-03-30T01:31:14.817Z,6.40
2018-03-30T01:33:41.777Z,6.30
2018-03-30T01:36:08.636Z,6.30
2018-03-30T01:38:35.507Z,6.20
2018-03-30T01:41:02.352Z,6.10
2018-03-30T01:43:29.218Z,6.20
2018-03-30T01:45:56.061Z,6.20
2018-03-30T01:48:23.035Z,6.20
2018-03-30T01:50:49.896Z,6.20
2018-03-30T01:53:16.762Z,6.20
2018-03-30T01:55:43.638Z,6.30
2018-03-30T01:58:10.569Z,6.40
2018-03-30T02:00:37.425Z,6.40
2018-03-30T02:03:04.306Z,6.30
2018-03-30T02:05:31.164Z,6.20
2018-03-30T02:07:58.095Z,6.10
2018-03-30T02:10:25.074Z,6.20
2018-03-30T02:12:51.958Z,6.20
2018-03-30T02:15:18.797Z,6.10
2018-03-30T02:17:45.650Z,6.10
2018-03-30T02:20:12.584Z,6.20
2018-03-30T02:22:39.427Z,6.20
2018-03-30T02:25:06.408Z,6.10
2018-03-30T02:27:33.282Z,6.20
2018-03-30T02:30:00.149Z,6.20
2018-03-30T02:32:27.074Z,6.00
2018-03-30T02:34:54.030Z,5.90
2018-03-30T02:37:20.902Z,5.90
2018-03-30T02:39:47.785Z,5.90
2018-03-30T02:42:14.643Z,5.90
2018-03-30T02:44:41.550Z,5.90
2018-03-30T02:47:08.433Z,5.90
2018-03-30T02:49:35.318Z,5.90
2018-03-30T02:52:02.220Z,5.80
2018-03-30T02:54:29.502Z,5.80
2018-03-30T02:56:56.505Z,5.80
2018-03-30T02:59:23.447Z,5.80
2018-03-30T03:01:50.297Z,5.80
2018-03-30T03:04:17.181Z,5.90
2018-03-30T03:06:44.100Z,5.70
2018-03-30T03:09:10.958Z,5.60
2018-03-30T03:11:37.801Z,5.60
2018-03-30T03:14:04.692Z,5.50
2018-03-30T03:16:31.574Z,5.50
2018-03-30T03:18:58.410Z,5.40
2018-03-30T03:21:25.298Z,5.40
2018-03-30T03:23:52.205Z,5.40
2018-03-30T03:26:19.066Z,5.40
2018-03-30T03:28:45.928Z,5.40
2018-03-30T03:31:12.771Z,5.40
2018-03-30T03:33:40.015Z,5.40
2018-03-30T03:36:06.963Z,5.40
2018-03-30T03:38:33.906Z,5.40
2018-03-30T03:41:00.775Z,5.40
2018-03-30T03:43:27.709Z,5.30
2018-03-30T03:45:54.601Z,5.30
2018-03-30T03:48:21.543Z,5.30
2018-03-30T03:50:48.388Z,5.40
2018-03-30T03:53:15.258Z,5.40
2018-03-30T03:55:42.209Z,5.40
2018-03-30T03:58:09.173Z,5.40
2018-03-30T04:00:36.036Z,5.20
2018-03-30T04:03:02.985Z,5.20
2018-03-30T04:05:29.945Z,5.10
2018-03-30T04:07:56.785Z,5.10
2018-03-30T04:10:23.632Z,5.00
2018-03-30T04:12:50.512Z,5.00
2018-03-30T04:15:17.578Z,5.00
2018-03-30T04:17:44.533Z,4.90
2018-03-30T04:20:11.440Z,4.80
2018-03-30T04:22:38.302Z,4.80
2018-03-30T04:25:05.225Z,4.90
2018-03-30T04:27:32.171Z,4.90
2018-03-30T04:29:59.033Z,4.90
2018-03-30T04:32:25.876Z,4.90
2018-03-30T04:34:52.836Z,4.80
2018-03-30T04:37:19.686Z,4.80
2018-03-30T04:39:46.672Z,4.70
2018-03-30T04:42:13.516Z,4.70
2018-03-30T04:44:40.394Z,4.60
2018-03-30T04:47:07.250Z,4.60
2018-03-30T04:49:34.194Z,4.70
2018-03-30T04:52:01.110Z,4.80
2018-03-30T04:54:27.961Z,4.70
2018-03-30T04:56:55.241Z,4.60
2018-03-30T04:59:22.560Z,4.60
2018-03-30T05:01:49.431Z,4.60
2018-03-30T05:04:16.350Z,4.60
2018-03-30T05:06:43.205Z,4.50
2018-03-30T05:09:10.068Z,4.50
2018-03-30T05:11:37.031Z,4.50
2018-03-30T05:14:03.988Z,4.50
2018-03-30T05:16:30.995Z,4.40
2018-03-30T05:18:57.811Z,4.40
2018-03-30T05:21:24.677Z,4.50
2018-03-30T05:23:51.587Z,4.60
2018-03-30T05:26:18.858Z,4.60
2018-03-30T05:28:46.121Z,4.60
2018-03-30T05:31:13.486Z,4.60
2018-03-30T05:33:40.782Z,4.70
2018-03-30T05:36:07.770Z,4.80
2018-03-30T05:38:34.623Z,4.70
2018-03-30T05:41:01.478Z,4.80
2018-03-30T05:43:28.413Z,4.70
2018-03-30T05:45:55.287Z,4.60
2018-03-30T05:48:22.153Z,4.60
2018-03-30T05:50:49.094Z,4.60
2018-03-30T05:53:15.985Z,4.70
2018-03-30T05:55:42.913Z,4.90
2018-03-30T05:58:09.781Z,5.00
2018-03-30T06:00:36.743Z,5.10
2018-03-30T06:03:03.699Z,5.20
2018-03-30T06:05:30.645Z,5.20
2018-03-30T06:07:57.610Z,5.30
2018-03-30T06:10:24.493Z,5.40
2018-03-30T06:12:51.435Z,5.50
2018-03-30T06:15:18.388Z,5.60
2018-03-30T06:17:45.242Z,5.70
2018-03-30T06:20:14.976Z,5.80
2018-03-30T06:22:41.922Z,5.90
2018-03-30T06:25:08.776Z,5.90
2018-03-30T06:27:35.781Z,5.90
2018-03-30T06:30:02.652Z,6.10
2018-03-30T06:32:29.541Z,6.10
2018-03-30T06:34:56.438Z,6.10
2018-03-30T06:37:23.297Z,6.10
2018-03-30T06:39:50.169Z,6.20
2018-03-30T06:42:17.081Z,6.30
2018-03-30T06:44:43.937Z,6.30
2018-03-30T06:47:10.797Z,6.40
2018-03-30T06:49:37.665Z,6.40
2018-03-30T06:52:04.614Z,6.50
2018-03-30T06:54:31.475Z,6.50
2018-03-30T06:56:58.424Z,6.50
2018-03-30T06:59:25.317Z,6.60
2018-03-30T07:01:52.195Z,6.70
2018-03-30T07:04:19.053Z,6.70
2018-03-30T07:06:45.901Z,6.90
2018-03-30T07:09:12.825Z,7.00
2018-03-30T07:11:39.693Z,7.10
2018-03-30T07:14:06.550Z,7.20
2018-03-30T07:16:33.415Z,7.20
2018-03-30T07:19:00.340Z,7.30
2018-03-30T07:21:27.208Z,7.40
2018-03-30T07:23:54.082Z,7.50
2018-03-30T07:26:20.954Z,7.60
2018-03-30T07:28:47.897Z,7.70
2018-03-30T07:31:14.772Z,7.80
2018-03-30T07:33:42.105Z,8.00
2018-03-30T07:36:08.957Z,8.10
2018-03-30T07:38:35.802Z,8.10
2018-03-30T07:41:02.697Z,8.10
2018-03-30T07:43:29.642Z,8.10
2018-03-30T07:45:56.518Z,8.20
2018-03-30T07:48:23.452Z,8.30
2018-03-30T07:50:50.298Z,8.40
2018-03-30T07:53:17.174Z,8.60
2018-03-30T07:55:44.167Z,8.60
2018-03-30T07:58:11.070Z,8.70
2018-03-30T08:00:37.956Z,8.80
2018-03-30T08:03:04.799Z,8.90
2018-03-30T08:05:31.653Z,9.00
2018-03-30T08:07:58.578Z,9.20
2018-03-30T08:10:25.430Z,9.30
2018-03-30T08:12:52.337Z,9.20
2018-03-30T08:15:19.208Z,9.10
2018-03-30T08:17:46.070Z,9.10
2018-03-30T08:20:12.956Z,9.40
2018-03-30T08:22:39.796Z,9.50
2018-03-30T08:25:06.660Z,9.50
2018-03-30T08:27:33.587Z,9.60
2018-03-30T08:30:00.471Z,9.80
2018-03-30T08:32:27.333Z,9.90
2018-03-30T08:34:54.185Z,9.90
2018-03-30T08:37:21.061Z,10.10
2018-03-30T08:39:48.182Z,10.20
2018-03-30T08:42:15.076Z,10.10
2018-03-30T08:44:41.991Z,10.20
2018-03-30T08:47:08.956Z,10.40
2018-03-30T08:49:35.914Z,10.60
2018-03-30T08:52:02.794Z,10.60
2018-03-30T08:54:29.645Z,10.70
2018-03-30T08:56:56.594Z,10.70
2018-03-30T08:59:23.649Z,10.70
2018-03-30T09:01:50.506Z,10.80
2018-03-30T09:04:17.455Z,10.80
2018-03-30T09:06:44.385Z,10.70
2018-03-30T09:09:11.639Z,11.00
2018-03-30T09:11:38.505Z,11.00
2018-03-30T09:14:05.812Z,11.40
2018-03-30T09:16:32.766Z,11.40
2018-03-30T09:18:59.689Z,11.50
2018-03-30T09:21:26.534Z,11.60
2018-03-30T09:23:53.447Z,11.80
2018-03-30T09:26:20.400Z,12.00
2018-03-30T09:28:47.276Z,12.00
2018-03-30T09:31:14.273Z,11.90
2018-03-30T09:33:41.163Z,12.00
2018-03-30T09:36:08.037Z,12.00
2018-03-30T09:38:34.999Z,12.00
2018-03-30T09:41:01.870Z,12.20
2018-03-30T09:43:28.720Z,12.40
2018-03-30T09:45:55.667Z,12.50
2018-03-30T09:48:22.537Z,12.60
2018-03-30T09:50:49.406Z,12.70
2018-03-30T09:53:16.279Z,12.60
2018-03-30T09:55:43.136Z,12.60
2018-03-30T09:58:10.025Z,12.70
2018-03-30T10:00:37.261Z,12.80
2018-03-30T10:03:04.124Z,12.80
2018-03-30T10:05:30.995Z,12.90
2018-03-30T10:07:58.310Z,13.20
2018-03-30T10:10:25.224Z,13.20
2018-03-30T10:12:52.500Z,13.60
2018-03-30T10:15:19.797Z,13.70
2018-03-30T10:17:46.666Z,13.70
2018-03-30T10:20:13.537Z,13.80
2018-03-30T10:22:40.384Z,13.50
2018-03-30T10:25:07.254Z,13.50
2018-03-30T10:27:34.225Z,13.50
2018-03-30T10:30:01.093Z,13.40
2018-03-30T10:32:28.411Z,13.40
2018-03-30T10:34:55.282Z,13.40
2018-03-30T10:37:22.222Z,13.40
2018-03-30T10:39:49.081Z,13.40
2018-03-30T10:42:15.977Z,13.50
2018-03-30T10:44:42.806Z,13.40
2018-03-30T10:47:09.661Z,13.40
2018-03-30T10:49:36.631Z,13.50
2018-03-30T10:52:03.569Z,13.60
2018-03-30T10:54:30.524Z,13.80
2018-03-30T10:56:57.488Z,13.90
2018-03-30T10:59:24.345Z,13.80
2018-03-30T11:01:51.306Z,13.90
2018-03-30T11:04:18.176Z,13.90
2018-03-30T11:06:45.124Z,14.10
2018-03-30T11:09:11.977Z,14.20
2018-03-30T11:11:38.989Z,14.30
2018-03-30T11:14:05.900Z,14.50
2018-03-30T11:16:32.768Z,14.70
2018-03-30T11:18:59.641Z,14.70
2018-03-30T11:21:26.598Z,14.70
2018-03-30T11:23:53.512Z,14.80
2018-03-30T11:26:20.797Z,15.20
2018-03-30T11:28:47.663Z,15.20
2018-03-30T11:31:14.555Z,15.20
2018-03-30T11:33:41.397Z,15.40
2018-03-30T11:36:08.260Z,15.60
2018-03-30T11:38:35.177Z,15.80
2018-03-30T11:41:02.041Z,15.80
2018-03-30T11:43:28.914Z,15.90
2018-03-30T11:45:55.904Z,16.00
2018-03-30T11:48:22.790Z,15.80
2018-03-30T11:50:49.644Z,15.70
2018-03-30T11:53:16.644Z,15.70
2018-03-30T11:55:43.609Z,15.70
2018-03-30T11:58:10.472Z,15.80
2018-03-30T12:00:37.396Z,15.70
2018-03-30T12:03:04.249Z,15.70
2018-03-30T12:05:31.100Z,15.60
2018-03-30T12:07:58.070Z,15.70
2018-03-30T12:10:24.913Z,15.70
2018-03-30T12:12:51.760Z,15.70
2018-03-30T12:15:19.025Z,15.80
2018-03-30T12:17:46.274Z,15.60
2018-03-30T12:20:13.177Z,15.60
2018-03-30T12:22:40.049Z,15.60
2018-03-30T12:25:06.988Z,15.60
2018-03-30T12:27:33.859Z,15.70
2018-03-30T12:30:00.722Z,15.80
2018-03-30T12:32:27.570Z,15.90
2018-03-30T12:34:54.524Z,16.00
2018-03-30T12:37:21.375Z,16.20
2018-03-30T12:39:48.341Z,16.30
2018-03-30T12:42:15.187Z,16.30
2018-03-30T12:44:42.041Z,16.20
2018-03-30T12:47:09.076Z,16.30
2018-03-30T12:49:36.333Z,16.40
2018-03-30T12:52:03.429Z,16.40
2018-03-30T12:54:30.389Z,16.40
2018-03-30T12:56:57.253Z,16.40
2018-03-30T12:59:24.121Z,16.40
2018-03-30T13:01:51.173Z,16.40
2018-03-30T13:04:18.006Z,16.40
2018-03-30T13:06:45.313Z,16.50
2018-03-30T13:09:12.261Z,16.50
2018-03-30T13:11:39.215Z,16.40
2018-03-30T13:14:06.169Z,16.20
2018-03-30T13:16:33.010Z,16.10
2018-03-30T13:18:59.850Z,16.10
2018-03-30T13:21:27.157Z,16.10
2018-03-30T13:23:54.025Z,16.00
2018-03-30T13:26:20.984Z,16.10
2018-03-30T13:28:47.945Z,16.10
2018-03-30T13:31:14.802Z,16.20
2018-03-30T13:33:41.665Z,16.20
2018-03-30T13:36:08.593Z,16.20
2018-03-30T13:38:35.860Z,16.30
2018-03-30T13:41:02.725Z,16.30
2018-03-30T13:43:29.573Z,16.20
2018-03-30T13:45:56.444Z,16.20
2018-03-30T13:48:23.347Z,16.30
2018-03-30T13:50:55.952Z,16.40
2018-03-30T13:53:24.785Z,16.20
2018-03-30T13:55:51.654Z,16.20
2018-03-30T13:58:31.058Z,16.10
2018-03-30T14:04:05.790Z,16.10
2018-03-30T14:09:41.588Z,15.70
2018-03-30T14:12:12.864Z,15.60
2018-03-30T14:14:40.100Z,15.60
2018-03-30T14:17:23.780Z,15.70
2018-03-30T14:19:51.356Z,15.70
2018-03-30T14:22:25.832Z,15.70
2018-03-30T14:24:58.549Z,15.70
2018-03-30T14:27:30.965Z,15.70
2018-03-30T14:30:03.273Z,15.60
2018-03-30T14:32:38.609Z,15.50
2018-03-30T14:35:08.107Z,15.60
2018-03-30T14:37:35.752Z,15.70
2018-03-30T14:40:04.067Z,15.80
2018-03-30T14:42:30.873Z,15.80
2018-03-30T14:45:00.604Z,15.80
2018-03-30T14:47:32.137Z,15.80
2018-03-30T14:50:00.481Z,15.80
2018-03-30T14:52:31.013Z,15.80
2018-03-30T14:54:57.861Z,15.60
2018-03-30T14:57:30.581Z,15.50
2018-03-30T15:00:01.364Z,15.60
2018-03-30T15:02:47.774Z,15.60
2018-03-30T15:05:19.528Z,15.70
2018-03-30T15:10:47.110Z,15.70
2018-03-30T15:13:21.692Z,15.60
2018-03-30T15:16:02.402Z,15.60
2018-03-30T15:18:35.961Z,15.60
2018-03-30T15:21:08.590Z,15.50
2018-03-30T15:23:39.086Z,15.40
2018-03-30T15:26:07.874Z,15.40
2018-03-30T15:28:34.730Z,15.40
2018-03-30T15:31:12.261Z,15.40
2018-03-30T15:33:46.117Z,15.40
2018-03-30T15:36:16.492Z,15.50
2018-03-30T15:38:43.346Z,15.40
2018-03-30T15:41:10.204Z,15.40
2018-03-30T15:43:37.074Z,15.40
2018-03-30T15:46:17.905Z,15.40
2018-03-30T15:48:44.749Z,15.50
2018-03-30T15:51:26.872Z,15.50
2018-03-30T15:53:53.337Z,15.50
2018-03-30T15:56:20.186Z,15.50
2018-03-30T15:58:47.064Z,15.50
2018-03-30T16:01:13.989Z,15.60
2018-03-30T16:03:40.840Z,15.60
2018-03-30T16:06:08.123Z,15.60
2018-03-30T16:08:34.998Z,15.60
2018-03-30T16:11:04.566Z,15.60
2018-03-30T16:13:31.425Z,15.60
2018-03-30T16:15:58.290Z,15.60
2018-03-30T16:18:25.574Z,15.70
2018-03-30T16:20:51.926Z,15.70
2018-03-30T16:23:18.285Z,15.60
2018-03-30T16:25:44.637Z,15.70
2018-03-30T16:28:11.028Z,15.60
2018-03-30T16:30:37.789Z,15.50
2018-03-30T16:33:04.821Z,15.50
2018-03-30T16:35:31.198Z,15.50
2018-03-30T16:37:57.957Z,15.30
2018-03-30T16:40:24.757Z,15.30
2018-03-30T16:42:51.116Z,15.30
2018-03-30T16:45:17.524Z,15.30
2018-03-30T16:47:44.277Z,15.20
2018-03-30T16:50:10.632Z,15.20
2018-03-30T16:52:36.994Z,14.60
2018-03-30T16:55:03.343Z,13.80
2018-03-30T16:57:29.709Z,13.40
2018-03-30T16:59:56.122Z,13.10
2018-03-30T17:02:22.477Z,13.10
2018-03-30T17:04:48.850Z,13.10
2018-03-30T17:07:15.212Z,12.90
2018-03-30T17:09:41.578Z,12.90
2018-03-30T17:12:08.326Z,12.80
2018-03-30T17:14:35.093Z,12.60
2018-03-30T17:17:01.475Z,12.60
2018-03-30T17:19:27.826Z,12.50
2018-03-30T17:21:54.202Z,12.50
2018-03-30T17:24:20.990Z,12.00
2018-03-30T17:26:47.347Z,12.00
2018-03-30T17:29:13.714Z,11.90
2018-03-30T17:31:40.068Z,11.80
2018-03-30T17:34:06.463Z,11.70
2018-03-30T17:36:32.895Z,11.60
2018-03-30T17:38:59.640Z,11.70
2018-03-30T17:41:26.437Z,11.80
2018-03-30T17:43:52.806Z,11.80
2018-03-30T17:46:19.165Z,11.80
2018-03-30T17:48:45.513Z,11.80
2018-03-30T17:51:11.893Z,11.80
2018-03-30T17:53:38.649Z,12.10
2018-03-30T17:56:05.431Z,12.30
2018-03-30T17:58:31.850Z,12.30
2018-03-30T18:00:58.646Z,12.30
2018-03-30T18:03:25.025Z,12.30
2018-03-30T18:05:51.411Z,12.10
2018-03-30T18:08:17.784Z,11.90
2018-03-30T18:10:44.142Z,11.70
2018-03-30T18:13:10.498Z,11.80
2018-03-30T18:15:36.874Z,11.80
2018-03-30T18:18:03.628Z,11.70
2018-03-30T18:20:30.381Z,11.80
2018-03-30T18:22:57.142Z,11.90
2018-03-30T18:25:23.926Z,11.90
2018-03-30T18:27:50.287Z,11.90
2018-03-30T18:30:16.644Z,11.90
2018-03-30T18:32:42.999Z,12.00
2018-03-30T18:35:09.362Z,12.10
2018-03-30T18:37:35.737Z,12.20
2018-03-30T18:40:02.174Z,12.00
2018-03-30T18:42:28.934Z,11.80
2018-03-30T18:44:55.335Z,11.80
2018-03-30T18:47:21.671Z,11.80
2018-03-30T18:49:48.016Z,12.00
2018-03-30T18:52:14.403Z,12.10
2018-03-30T18:54:41.144Z,12.00
2018-03-30T18:57:07.497Z,12.00
2018-03-30T18:59:33.872Z,12.00
2018-03-30T19:02:00.231Z,12.10
2018-03-30T19:04:26.582Z,12.00
2018-03-30T19:06:52.948Z,11.80
2018-03-30T19:09:19.306Z,11.60
2018-03-30T19:11:45.670Z,11.40
2018-03-30T19:14:12.413Z,11.20
2018-03-30T19:16:38.780Z,11.20
2018-03-30T19:19:05.544Z,11.00
2018-03-30T19:21:31.906Z,11.00
2018-03-30T19:23:58.273Z,10.80
2018-03-30T19:29:02.305Z,10.80
2018-03-30T19:31:28.654Z,10.90
2018-03-30T19:33:55.033Z,11.00
2018-03-30T19:36:21.393Z,11.00
2018-03-30T19:38:47.747Z,11.00
2018-03-30T19:41:14.513Z,10.80
2018-03-30T19:43:41.299Z,10.60
2018-03-30T19:46:07.650Z,10.60
2018-03-30T19:48:34.014Z,10.60
2018-03-30T19:51:00.396Z,10.90
2018-03-30T19:53:26.734Z,11.10
2018-03-30T19:55:53.097Z,11.10
2018-03-30T19:58:19.470Z,11.10
2018-03-30T20:00:45.840Z,11.00
2018-03-30T20:03:12.202Z,11.00
2018-03-30T20:05:38.567Z,11.20
2018-03-30T20:08:05.324Z,11.40
2018-03-30T20:10:31.697Z,11.40
2018-03-30T20:12:58.070Z,11.50
2018-03-30T20:15:24.441Z,11.40
2018-03-30T20:17:50.933Z,11.30
2018-03-30T20:20:17.295Z,11.30
2018-03-30T20:22:43.650Z,11.20
2018-03-30T20:25:10.025Z,11.20
2018-03-30T20:27:36.388Z,11.30
2018-03-30T20:30:03.157Z,11.40
2018-03-30T20:32:29.523Z,11.40
2018-03-30T20:34:56.103Z,11.40
2018-03-30T20:37:22.791Z,11.30
2018-03-30T20:39:49.585Z,10.60
2018-03-30T20:42:15.932Z,10.60
2018-03-30T20:44:42.322Z,10.40
2018-03-30T20:47:08.674Z,10.20
2018-03-30T20:49:35.457Z,10.20
2018-03-30T20:52:02.219Z,10.20
2018-03-30T20:54:28.593Z,10.20
2018-03-30T20:56:54.953Z,10.20
2018-03-30T20:59:21.321Z,10.20
2018-03-30T21:01:48.081Z,9.80
2018-03-30T21:04:14.841Z,9.90
2018-03-30T21:06:41.611Z,10.00
2018-03-30T21:09:08.354Z,10.30
2018-03-30T21:11:35.174Z,10.40
2018-03-30T21:14:01.702Z,10.40
2018-03-30T21:16:28.221Z,10.40
2018-03-30T21:18:54.585Z,10.30
2018-03-30T21:21:21.105Z,10.30
2018-03-30T21:23:47.861Z,10.40
2018-03-30T21:26:14.234Z,10.40
2018-03-30T21:28:40.603Z,10.40
2018-03-30T21:31:06.962Z,10.40
2018-03-30T21:33:33.371Z,10.50
2018-03-30T21:35:59.721Z,10.60
2018-03-30T21:38:26.167Z,10.70
2018-03-30T21:40:52.563Z,10.90
2018-03-30T21:43:18.922Z,10.90
2018-03-30T21:45:45.685Z,11.00
2018-03-30T21:48:12.040Z,11.00
2018-03-30T21:50:38.426Z,11.00
2018-03-30T21:53:04.853Z,11.00
2018-03-30T21:55:31.410Z,11.10
2018-03-30T21:57:57.753Z,11.10
2018-03-30T22:00:24.129Z,11.10
2018-03-30T22:02:50.625Z,11.10
2018-03-30T22:05:16.998Z,11.10
2018-03-30T22:07:43.337Z,11.10
2018-03-30T22:10:09.721Z,11.00
2018-03-30T22:12:36.094Z,10.90
2018-03-30T22:15:02.864Z,10.90
2018-03-30T22:17:29.244Z,10.90
2018-03-30T22:19:55.600Z,10.90
2018-03-30T22:22:21.962Z,10.90
2018-03-30T22:24:48.351Z,10.90
2018-03-30T22:27:14.714Z,10.80
2018-03-30T22:29:41.062Z,10.80
2018-03-30T22:32:07.441Z,10.90
2018-03-30T22:34:33.834Z,10.80
2018-03-30T22:37:00.189Z,10.60
2018-03-30T22:39:26.650Z,10.50
2018-03-30T22:41:53.008Z,10.50
2018-03-30T22:44:19.375Z,10.30
2018-03-30T22:46:45.759Z,10.20
2018-03-30T22:49:12.118Z,10.30
2018-03-30T22:51:38.498Z,10.30
2018-03-30T22:54:04.960Z,10.30
2018-03-30T22:56:31.957Z,10.30
2018-03-30T22:58:58.309Z,10.20
2018-03-30T23:01:24.700Z,10.20
2018-03-30T23:03:51.061Z,10.20
2018-03-30T23:06:17.844Z,10.10
2018-03-30T23:08:44.205Z,10.10
2018-03-30T23:11:10.576Z,10.00
2018-03-30T23:13:37.002Z,9.90
2018-03-30T23:16:03.372Z,9.90
2018-03-30T23:18:29.750Z,9.90
2018-03-30T23:20:56.496Z,10.00
2018-03-30T23:23:23.254Z,9.90
2018-03-30T23:25:50.032Z,9.80
2018-03-30T23:28:16.385Z,9.80
2018-03-30T23:30:42.744Z,9.80
2018-03-30T23:33:09.146Z,9.80
2018-03-30T23:35:35.916Z,9.70
2018-03-30T23:38:02.673Z,9.70
2018-03-30T23:40:29.049Z,9.70
2018-03-30T23:42:55.413Z,9.70
2018-03-30T23:45:21.789Z,9.70
2018-03-30T23:47:48.563Z,9.50
2018-03-30T23:50:15.946Z,9.50
2018-03-30T23:52:42.321Z,9.20
2018-03-30T23:55:08.669Z,8.90
2018-03-30T23:57:35.042Z,8.80
